Time;durP1;ratioP1;P1;durP2;ratioP2;P2;SDS_P1;SDS_P2;PMS_P1;PMS_P2;Temp;Humidity;BMP_temperature;BMP_pressure;BME280_temperature;BME280_humidity;BME280_pressure;Samples;Min_cycle;Max_cycle;Signal;HPM_P1;HPM_P2
2022/11/18 00:01:58;;;;;;;;;;;11.00;99.90;;;;;;5095039;28;19967;-66
2022/11/18 00:04:27;;;;;;;;;;;11.10;99.90;;;;;;5095306;28;19974;-64
2022/11/18 00:06:55;;;;;;;;;;;11.10;99.90;;;;;;5095086;28;20466;-65
2022/11/18 00:09:23;;;;;;;;;;;11.10;99.90;;;;;;5094993;28;20355;-67
2022/11/18 00:14:35;;;;;;;;;;;11.10;99.90;;;;;;5080224;28;20360;-65
2022/11/18 00:17:04;;;;;;;;;;;11.10;99.90;;;;;;5094786;28;20398;-66
2022/11/18 00:19:34;;;;;;;;;;;11.10;99.90;;;;;;5094458;28;19972;-65
2022/11/18 00:22:02;;;;;;;;;;;11.10;99.90;;;;;;5094834;28;20070;-65
2022/11/18 00:24:30;;;;;;;;;;;11.20;99.90;;;;;;5094960;28;19971;-67
2022/11/18 00:26:58;;;;;;;;;;;11.30;99.90;;;;;;5094680;28;20573;-65
2022/11/18 00:29:27;;;;;;;;;;;11.30;99.90;;;;;;5094525;28;20003;-66
2022/11/18 00:31:55;;;;;;;;;;;11.30;99.90;;;;;;5094374;28;19967;-65
2022/11/18 00:34:23;;;;;;;;;;;11.40;99.90;;;;;;5094611;28;20459;-65
2022/11/18 00:36:53;;;;;;;;;;;11.40;99.90;;;;;;5092837;28;19997;-64
2022/11/18 00:39:23;;;;;;;;;;;11.40;99.90;;;;;;5094613;28;19967;-66
2022/11/18 00:44:39;;;;;;;;;;;11.30;99.90;;;;;;5074510;28;19968;-67
2022/11/18 00:47:15;;;;;;;;;;;11.30;99.90;;;;;;5092510;28;20468;-67
2022/11/18 00:49:51;;;;;;;;;;;11.30;99.90;;;;;;5093580;28;19999;-67
2022/11/18 00:52:23;;;;;;;;;;;11.20;99.90;;;;;;5091662;28;20356;-67
2022/11/18 00:55:11;;;;;;;;;;;11.20;99.90;;;;;;5094078;28;20494;-67
2022/11/18 00:57:42;;;;;;;;;;;11.20;99.90;;;;;;5094019;28;19971;-67
2022/11/18 01:00:10;;;;;;;;;;;11.10;99.90;;;;;;5093622;28;20050;-67
2022/11/18 01:02:38;;;;;;;;;;;11.20;99.90;;;;;;5094201;28;19967;-68
2022/11/18 01:05:11;;;;;;;;;;;11.30;99.90;;;;;;5091015;28;19972;-67
2022/11/18 01:07:42;;;;;;;;;;;11.30;99.90;;;;;;5093871;28;19967;-67
2022/11/18 01:10:10;;;;;;;;;;;11.40;99.90;;;;;;5092804;28;20054;-67
2022/11/18 01:15:26;;;;;;;;;;;11.50;99.90;;;;;;5094110;28;20341;-67
2022/11/18 01:17:57;;;;;;;;;;;11.50;99.90;;;;;;5093647;28;19967;-68
2022/11/18 01:20:25;;;;;;;;;;;11.50;99.90;;;;;;5090925;28;20024;-68
2022/11/18 01:23:12;;;;;;;;;;;11.50;99.90;;;;;;5093666;28;19968;-67
2022/11/18 01:25:42;;;;;;;;;;;11.50;99.90;;;;;;5093558;28;20009;-67
2022/11/18 01:28:10;;;;;;;;;;;11.50;99.90;;;;;;5093597;28;19971;-67
2022/11/18 01:30:41;;;;;;;;;;;11.50;99.90;;;;;;5092650;28;19968;-68
2022/11/18 01:33:09;;;;;;;;;;;11.50;99.90;;;;;;5093209;28;20017;-68
2022/11/18 01:35:41;;;;;;;;;;;11.50;99.90;;;;;;5090339;28;19980;-68
2022/11/18 01:38:10;;;;;;;;;;;11.50;99.90;;;;;;5030962;28;19977;-68
2022/11/18 01:40:40;;;;;;;;;;;11.60;99.90;;;;;;5029675;28;20389;-68
2022/11/18 01:43:12;;;;;;;;;;;11.60;99.90;;;;;;5082999;28;19967;-67
2022/11/18 01:45:42;;;;;;;;;;;11.60;99.90;;;;;;5089274;28;20504;-68
2022/11/18 01:48:19;;;;;;;;;;;11.50;99.90;;;;;;5093475;28;19971;-68
2022/11/18 01:50:57;;;;;;;;;;;11.50;99.90;;;;;;5092500;28;20075;-69
2022/11/18 01:53:32;;;;;;;;;;;11.60;99.90;;;;;;5093013;28;20062;-67
2022/11/18 01:56:04;;;;;;;;;;;11.50;99.90;;;;;;5107391;28;19975;-68
2022/11/18 01:58:34;;;;;;;;;;;11.50;99.90;;;;;;5072874;28;20073;-67
2022/11/18 02:01:03;;;;;;;;;;;11.40;99.90;;;;;;5072009;28;20018;-68
2022/11/18 02:03:31;;;;;;;;;;;11.50;99.90;;;;;;5072502;28;20003;-67
2022/11/18 02:06:01;;;;;;;;;;;11.50;99.90;;;;;;5069633;28;20449;-67
2022/11/18 02:08:36;;;;;;;;;;;11.40;99.90;;;;;;5072666;28;19971;-67
2022/11/18 02:11:49;;;;;;;;;;;11.40;99.90;;;;;;5084997;28;19963;-67
2022/11/18 02:13:58;;;;;;;;;;;11.30;99.90;;;;;;5084121;28;20021;-68
2022/11/18 02:16:29;;;;;;;;;;;11.20;99.90;;;;;;5092780;28;19971;-68
2022/11/18 02:19:01;;;;;;;;;;;11.10;99.90;;;;;;5092907;28;19971;-67
2022/11/18 02:21:38;;;;;;;;;;;11.10;99.90;;;;;;5091532;28;19967;-67
2022/11/18 02:24:18;;;;;;;;;;;10.80;99.90;;;;;;5092578;28;19998;-68
2022/11/18 02:27:16;;;;;;;;;;;10.80;99.90;;;;;;5092477;28;19967;-68
2022/11/18 02:29:49;;;;;;;;;;;10.70;99.90;;;;;;5091589;28;20035;-68
2022/11/18 02:32:19;;;;;;;;;;;10.50;99.90;;;;;;5092368;28;20016;-67
2022/11/18 02:34:49;;;;;;;;;;;10.60;99.90;;;;;;5090437;28;19975;-67
2022/11/18 02:37:22;;;;;;;;;;;10.70;99.90;;;;;;5092611;28;20017;-67
2022/11/18 02:39:54;;;;;;;;;;;10.60;99.90;;;;;;5091650;28;19971;-68
2022/11/18 02:42:23;;;;;;;;;;;10.80;99.90;;;;;;5091453;28;19975;-65
2022/11/18 02:44:58;;;;;;;;;;;10.80;99.90;;;;;;5092349;28;20485;-65
2022/11/18 02:47:27;;;;;;;;;;;10.90;99.90;;;;;;5089836;28;19979;-66
2022/11/18 02:49:57;;;;;;;;;;;10.80;99.90;;;;;;5088790;28;19967;-65
2022/11/18 02:52:34;;;;;;;;;;;10.80;99.90;;;;;;5090556;28;19963;-64
2022/11/18 02:55:05;;;;;;;;;;;10.80;99.90;;;;;;5090936;28;20013;-64
2022/11/18 02:57:34;;;;;;;;;;;10.80;99.90;;;;;;5086223;28;19971;-65
2022/11/18 03:00:06;;;;;;;;;;;11.00;99.90;;;;;;5089778;28;19974;-66
2022/11/18 03:02:40;;;;;;;;;;;11.10;99.90;;;;;;5087656;28;19988;-65
2022/11/18 03:05:17;;;;;;;;;;;11.20;99.90;;;;;;5090704;28;19971;-65
2022/11/18 03:07:50;;;;;;;;;;;11.10;99.90;;;;;;5090739;28;20054;-65
2022/11/18 03:10:21;;;;;;;;;;;11.20;99.90;;;;;;5087589;28;20464;-66
2022/11/18 03:12:52;;;;;;;;;;;11.20;99.90;;;;;;5090470;28;20400;-66
2022/11/18 03:15:24;;;;;;;;;;;11.20;99.90;;;;;;5091785;28;20020;-66
2022/11/18 03:17:58;;;;;;;;;;;11.20;99.90;;;;;;5091864;28;20348;-66
2022/11/18 03:20:55;;;;;;;;;;;11.10;99.90;;;;;;5090338;28;20025;-66
2022/11/18 03:23:26;;;;;;;;;;;11.10;99.90;;;;;;5091506;28;19972;-64
2022/11/18 03:25:55;;;;;;;;;;;11.10;99.90;;;;;;5091722;28;19975;-66
2022/11/18 03:28:27;;;;;;;;;;;11.20;99.90;;;;;;5092010;28;19978;-65
2022/11/18 03:31:05;;;;;;;;;;;11.10;99.90;;;;;;5114038;22;20983;-62
2022/11/18 03:33:43;;;;;;;;;;;11.10;99.90;;;;;;5085996;28;19963;-62
2022/11/18 03:36:15;;;;;;;;;;;10.80;99.90;;;;;;5095951;28;19971;-62
2022/11/18 03:38:48;;;;;;;;;;;10.60;99.90;;;;;;5095789;28;19967;-62
2022/11/18 03:41:17;;;;;;;;;;;10.40;99.90;;;;;;5090308;28;20376;-62
2022/11/18 03:43:48;;;;;;;;;;;10.40;99.90;;;;;;5082452;28;20021;-62
2022/11/18 03:46:20;;;;;;;;;;;10.30;99.90;;;;;;5083590;28;19963;-62
2022/11/18 03:48:51;;;;;;;;;;;10.30;99.90;;;;;;5095824;28;19968;-62
2022/11/18 03:51:22;;;;;;;;;;;10.20;99.90;;;;;;5094883;28;20447;-62
2022/11/18 03:53:52;;;;;;;;;;;10.10;99.90;;;;;;5095137;28;19976;-62
2022/11/18 03:56:22;;;;;;;;;;;10.10;99.90;;;;;;5093449;28;19975;-62
2022/11/18 03:58:53;;;;;;;;;;;10.30;99.90;;;;;;5095510;28;20020;-62
2022/11/18 04:01:25;;;;;;;;;;;10.30;99.90;;;;;;5085130;28;20025;-62
2022/11/18 04:03:56;;;;;;;;;;;10.40;99.90;;;;;;5074919;28;19972;-61
2022/11/18 04:06:30;;;;;;;;;;;10.50;99.90;;;;;;5074595;28;19971;-62
2022/11/18 04:09:03;;;;;;;;;;;10.60;99.90;;;;;;5075115;28;19971;-62
2022/11/18 04:14:24;;;;;;;;;;;10.70;99.90;;;;;;5094778;28;20440;-62
2022/11/18 04:16:53;;;;;;;;;;;10.80;99.90;;;;;;5095126;28;19971;-61
2022/11/18 04:19:21;;;;;;;;;;;10.90;99.90;;;;;;5095163;28;20001;-61
2022/11/18 04:21:50;;;;;;;;;;;10.90;99.90;;;;;;5089894;28;19970;-61
2022/11/18 04:24:23;;;;;;;;;;;11.00;99.90;;;;;;5094831;28;20058;-62
2022/11/18 04:26:51;;;;;;;;;;;11.00;99.90;;;;;;5074234;28;20412;-62
2022/11/18 04:29:19;;;;;;;;;;;11.10;99.90;;;;;;5077474;28;20016;-62
2022/11/18 04:31:54;;;;;;;;;;;11.10;99.90;;;;;;5094073;28;19967;-62
2022/11/18 04:34:21;;;;;;;;;;;11.10;99.90;;;;;;5094593;28;19968;-62
2022/11/18 04:36:49;;;;;;;;;;;11.10;99.90;;;;;;5094211;28;19974;-62
2022/11/18 04:39:17;;;;;;;;;;;11.20;99.90;;;;;;5092663;28;19963;-61
2022/11/18 04:41:57;;;;;;;;;;;11.20;99.90;;;;;;5086380;28;19998;-61
2022/11/18 04:44:26;;;;;;;;;;;11.10;99.90;;;;;;5092090;28;20340;-62
2022/11/18 04:46:55;;;;;;;;;;;11.10;99.90;;;;;;5085402;28;19974;-62
2022/11/18 04:49:24;;;;;;;;;;;11.10;99.90;;;;;;5089794;28;19972;-61
2022/11/18 04:51:52;;;;;;;;;;;11.20;99.90;;;;;;5092351;28;19963;-62
2022/11/18 04:54:20;;;;;;;;;;;11.20;99.90;;;;;;5092991;28;19968;-61
2022/11/18 04:56:47;;;;;;;;;;;11.20;99.90;;;;;;5089565;28;19967;-61
2022/11/18 04:59:17;;;;;;;;;;;11.20;99.90;;;;;;5091626;28;19963;-63
2022/11/18 05:01:46;;;;;;;;;;;11.30;99.90;;;;;;5076586;28;20451;-62
2022/11/18 05:04:16;;;;;;;;;;;11.30;99.90;;;;;;5066789;28;19964;-62
2022/11/18 05:06:44;;;;;;;;;;;11.30;99.90;;;;;;5072698;28;19978;-62
2022/11/18 05:09:12;;;;;;;;;;;11.20;99.90;;;;;;5067000;28;20436;-62
2022/11/18 05:14:25;;;;;;;;;;;11.20;99.90;;;;;;5066841;28;19975;-62
2022/11/18 05:16:53;;;;;;;;;;;11.20;99.90;;;;;;5070937;28;19985;-62
2022/11/18 05:19:23;;;;;;;;;;;11.10;99.90;;;;;;5065980;28;19971;-62
2022/11/18 05:21:50;;;;;;;;;;;10.80;99.90;;;;;;5066364;28;19979;-62
2022/11/18 05:24:18;;;;;;;;;;;10.60;99.90;;;;;;5064696;28;19964;-62
2022/11/18 05:26:46;;;;;;;;;;;10.50;99.90;;;;;;5067334;28;19963;-62
2022/11/18 05:29:14;;;;;;;;;;;10.40;99.90;;;;;;5066575;28;19971;-61
2022/11/18 05:31:42;;;;;;;;;;;10.40;99.90;;;;;;5073050;28;19964;-62
2022/11/18 05:34:09;;;;;;;;;;;10.40;99.90;;;;;;5075091;28;19971;-61
2022/11/18 05:36:39;;;;;;;;;;;10.50;99.90;;;;;;5066245;28;19971;-62
2022/11/18 05:39:06;;;;;;;;;;;10.50;99.90;;;;;;5069305;28;19978;-62
2022/11/18 05:44:19;;;;;;;;;;;10.60;99.90;;;;;;5064899;28;20013;-62
2022/11/18 05:46:47;;;;;;;;;;;10.40;99.90;;;;;;5071479;28;19968;-62
2022/11/18 05:49:14;;;;;;;;;;;10.40;99.90;;;;;;5066283;28;19968;-62
2022/11/18 05:51:44;;;;;;;;;;;10.40;99.90;;;;;;5070409;28;20549;-62
2022/11/18 05:54:13;;;;;;;;;;;10.40;99.90;;;;;;5064768;28;19963;-61
2022/11/18 05:56:43;;;;;;;;;;;10.30;99.90;;;;;;5070071;28;19967;-62
2022/11/18 05:59:11;;;;;;;;;;;10.30;99.90;;;;;;5069104;28;20348;-61
2022/11/18 06:01:41;;;;;;;;;;;10.10;99.90;;;;;;5065737;28;19979;-62
2022/11/18 06:04:11;;;;;;;;;;;10.10;99.90;;;;;;5064643;28;20475;-61
2022/11/18 06:06:39;;;;;;;;;;;10.20;99.90;;;;;;5071293;28;19971;-62
2022/11/18 06:09:08;;;;;;;;;;;10.30;99.90;;;;;;5068970;28;19972;-61
2022/11/18 06:11:37;;;;;;;;;;;10.30;99.90;;;;;;5065362;28;19971;-62
2022/11/18 06:14:07;;;;;;;;;;;10.30;99.90;;;;;;5068481;28;20440;-61
2022/11/18 06:16:39;;;;;;;;;;;10.40;99.90;;;;;;5071934;28;19972;-62
2022/11/18 06:19:08;;;;;;;;;;;10.30;99.90;;;;;;5065937;28;19972;-62
2022/11/18 06:21:36;;;;;;;;;;;10.20;99.90;;;;;;5065473;28;19974;-62
2022/11/18 06:24:04;;;;;;;;;;;10.30;99.90;;;;;;5065010;28;20565;-61
2022/11/18 06:26:33;;;;;;;;;;;10.40;99.90;;;;;;5070324;28;19977;-62
2022/11/18 06:29:01;;;;;;;;;;;10.30;99.90;;;;;;5071263;28;20565;-62
2022/11/18 06:31:28;;;;;;;;;;;10.30;99.90;;;;;;5066116;28;19986;-62
2022/11/18 06:33:56;;;;;;;;;;;10.20;99.90;;;;;;5064690;28;19971;-62
2022/11/18 06:36:24;;;;;;;;;;;10.30;99.90;;;;;;5063445;28;20017;-62
2022/11/18 06:38:52;;;;;;;;;;;10.30;99.90;;;;;;5064945;28;20774;-62
2022/11/18 06:41:21;;;;;;;;;;;10.30;99.90;;;;;;5062943;28;19976;-63
2022/11/18 06:43:50;;;;;;;;;;;10.30;99.90;;;;;;5071089;28;19974;-62
2022/11/18 06:49:03;;;;;;;;;;;10.10;99.90;;;;;;5071046;28;19967;-62
2022/11/18 06:51:31;;;;;;;;;;;10.10;99.90;;;;;;5065012;28;20000;-62
2022/11/18 06:53:59;;;;;;;;;;;10.00;99.90;;;;;;5064581;28;20998;-63
2022/11/18 06:56:26;;;;;;;;;;;9.90;99.90;;;;;;5063390;28;19986;-66
2022/11/18 06:58:56;;;;;;;;;;;9.90;99.90;;;;;;5068623;28;19978;-63
2022/11/18 07:01:25;;;;;;;;;;;9.80;99.90;;;;;;5072535;28;20854;-62
2022/11/18 07:03:53;;;;;;;;;;;9.70;99.90;;;;;;5073416;28;20555;-62
2022/11/18 07:06:21;;;;;;;;;;;9.60;99.90;;;;;;5063149;28;19982;-62
2022/11/18 07:08:49;;;;;;;;;;;9.60;99.90;;;;;;5064218;28;19991;-62
2022/11/18 07:11:18;;;;;;;;;;;9.60;99.90;;;;;;5063457;28;20351;-62
2022/11/18 07:13:46;;;;;;;;;;;9.60;99.90;;;;;;5064168;28;19970;-62
2022/11/18 07:16:16;;;;;;;;;;;9.50;99.90;;;;;;5065221;28;19964;-62
2022/11/18 07:18:44;;;;;;;;;;;9.50;99.90;;;;;;5070742;28;19964;-62
2022/11/18 07:21:12;;;;;;;;;;;9.40;99.90;;;;;;5074196;28;20324;-62
2022/11/18 07:23:40;;;;;;;;;;;9.50;99.90;;;;;;5089447;28;20047;-64
2022/11/18 07:26:08;;;;;;;;;;;9.40;99.90;;;;;;5074696;28;19964;-62
2022/11/18 07:28:36;;;;;;;;;;;9.40;99.90;;;;;;5088322;28;20483;-62
2022/11/18 07:31:05;;;;;;;;;;;9.40;99.90;;;;;;5090390;28;19967;-62
2022/11/18 07:33:34;;;;;;;;;;;9.30;99.90;;;;;;5091920;28;20412;-62
2022/11/18 07:36:02;;;;;;;;;;;9.30;99.90;;;;;;5091798;28;20054;-62
2022/11/18 07:38:30;;;;;;;;;;;9.30;99.90;;;;;;5091621;28;19972;-62
2022/11/18 07:41:02;;;;;;;;;;;9.30;99.90;;;;;;5090847;28;20340;-62
2022/11/18 07:43:30;;;;;;;;;;;9.30;99.90;;;;;;5091593;28;19971;-62
2022/11/18 07:45:58;;;;;;;;;;;9.30;99.90;;;;;;5091350;28;20468;-62
2022/11/18 07:48:25;;;;;;;;;;;9.30;99.90;;;;;;5091533;28;19967;-62
2022/11/18 07:50:55;;;;;;;;;;;9.30;99.90;;;;;;5090481;28;20101;-62
2022/11/18 07:53:23;;;;;;;;;;;9.40;99.90;;;;;;5082827;28;20058;-61
2022/11/18 07:55:51;;;;;;;;;;;9.30;99.90;;;;;;5089210;28;19971;-62
2022/11/18 07:58:19;;;;;;;;;;;9.30;99.90;;;;;;5091415;28;19967;-62
2022/11/18 08:00:46;;;;;;;;;;;9.30;99.90;;;;;;5090682;28;20021;-62
2022/11/18 08:03:14;;;;;;;;;;;9.30;99.90;;;;;;5091289;28;20073;-62
2022/11/18 08:05:42;;;;;;;;;;;9.40;99.90;;;;;;5091158;28;20351;-62
2022/11/18 08:08:11;;;;;;;;;;;9.50;99.90;;;;;;5091380;28;20013;-62
2022/11/18 08:10:39;;;;;;;;;;;9.50;99.90;;;;;;5090394;28;19972;-62
2022/11/18 08:13:06;;;;;;;;;;;9.50;99.90;;;;;;5091371;28;20524;-62
2022/11/18 08:15:34;;;;;;;;;;;9.60;99.90;;;;;;5091219;28;19971;-62
2022/11/18 08:18:02;;;;;;;;;;;9.50;99.90;;;;;;5091433;28;20145;-62
2022/11/18 08:20:30;;;;;;;;;;;9.40;99.90;;;;;;5092981;28;20420;-62
2022/11/18 08:22:57;;;;;;;;;;;9.40;99.90;;;;;;5082781;28;19971;-60
2022/11/18 08:25:26;;;;;;;;;;;9.50;99.90;;;;;;5093136;28;19968;-62
2022/11/18 08:27:54;;;;;;;;;;;9.40;99.90;;;;;;5095028;28;20344;-62
2022/11/18 08:30:22;;;;;;;;;;;9.40;99.90;;;;;;5093923;28;19968;-62
2022/11/18 08:32:50;;;;;;;;;;;9.40;99.90;;;;;;5094466;28;20123;-62
2022/11/18 08:35:17;;;;;;;;;;;9.40;99.90;;;;;;5094843;28;20046;-62
2022/11/18 08:37:45;;;;;;;;;;;9.50;99.90;;;;;;5094352;28;20463;-62
2022/11/18 08:40:13;;;;;;;;;;;9.40;99.90;;;;;;5094231;28;20360;-61
2022/11/18 08:42:42;;;;;;;;;;;9.50;99.90;;;;;;5094728;28;19976;-62
2022/11/18 08:45:10;;;;;;;;;;;9.50;99.90;;;;;;5094607;28;20413;-62
2022/11/18 08:47:38;;;;;;;;;;;9.50;99.90;;;;;;5094376;28;19967;-62
2022/11/18 08:50:07;;;;;;;;;;;9.50;99.90;;;;;;5093660;28;19974;-61
2022/11/18 08:52:35;;;;;;;;;;;9.40;99.90;;;;;;5090949;28;19970;-61
2022/11/18 08:55:03;;;;;;;;;;;9.50;99.90;;;;;;5089278;28;19967;-62
2022/11/18 08:57:31;;;;;;;;;;;9.50;99.90;;;;;;5094281;28;19977;-62
2022/11/18 09:00:00;;;;;;;;;;;9.50;99.90;;;;;;5093536;28;19971;-62
2022/11/18 09:02:27;;;;;;;;;;;9.50;99.90;;;;;;5094100;28;19968;-62
2022/11/18 09:04:55;;;;;;;;;;;9.60;99.90;;;;;;5093783;28;19967;-62
2022/11/18 09:07:23;;;;;;;;;;;9.60;99.90;;;;;;5093988;28;19971;-62
2022/11/18 09:09:50;;;;;;;;;;;9.60;99.90;;;;;;5093452;28;19985;-62
2022/11/18 09:12:18;;;;;;;;;;;9.60;99.90;;;;;;5093685;28;19986;-62
2022/11/18 09:14:46;;;;;;;;;;;9.70;99.90;;;;;;5094138;28;19967;-62
2022/11/18 09:17:35;;;;;;;;;;;9.70;99.90;;;;;;5093734;28;19971;-62
2022/11/18 09:20:03;;;;;;;;;;;9.60;99.90;;;;;;5093214;28;19968;-62
2022/11/18 09:22:31;;;;;;;;;;;9.70;99.90;;;;;;5090777;28;20030;-62
2022/11/18 09:24:58;;;;;;;;;;;9.70;99.90;;;;;;5088466;28;19973;-62
2022/11/18 09:27:26;;;;;;;;;;;9.70;99.90;;;;;;5093678;28;20423;-62
2022/11/18 09:29:54;;;;;;;;;;;9.80;99.90;;;;;;5092955;28;20569;-62
2022/11/18 09:32:22;;;;;;;;;;;9.90;99.90;;;;;;5115353;22;20436;-66
2022/11/18 09:34:51;;;;;;;;;;;10.00;99.90;;;;;;5086733;28;19968;-66
2022/11/18 09:37:18;;;;;;;;;;;10.10;99.90;;;;;;5093294;28;20070;-66
2022/11/18 09:39:46;;;;;;;;;;;10.20;99.90;;;;;;5093011;28;19971;-67
2022/11/18 09:42:20;;;;;;;;;;;10.20;99.90;;;;;;5093404;28;19989;-66
2022/11/18 09:44:53;;;;;;;;;;;10.40;99.90;;;;;;5093386;28;20058;-66
2022/11/18 09:47:24;;;;;;;;;;;10.40;99.90;;;;;;5093212;28;20062;-66
2022/11/18 09:49:54;;;;;;;;;;;10.40;99.90;;;;;;5092584;28;19974;-66
2022/11/18 09:52:22;;;;;;;;;;;10.40;99.90;;;;;;5092819;28;19967;-66
2022/11/18 09:54:50;;;;;;;;;;;10.40;99.90;;;;;;5079172;28;20054;-67
2022/11/18 09:57:20;;;;;;;;;;;10.50;99.90;;;;;;5072910;28;19967;-66
2022/11/18 09:59:47;;;;;;;;;;;10.60;99.90;;;;;;5072199;28;20062;-66
2022/11/18 10:02:24;;;;;;;;;;;10.60;99.90;;;;;;5072906;28;20407;-66
2022/11/18 10:04:54;;;;;;;;;;;10.70;99.90;;;;;;5072805;28;19968;-67
2022/11/18 10:07:34;;;;;;;;;;;10.70;99.90;;;;;;5072502;28;20409;-67
2022/11/18 10:10:10;;;;;;;;;;;10.80;99.90;;;;;;5071973;28;20348;-66
2022/11/18 10:12:41;;;;;;;;;;;10.80;99.90;;;;;;5072708;28;20298;-66
2022/11/18 10:15:18;;;;;;;;;;;10.90;99.90;;;;;;5072780;28;20432;-67
2022/11/18 10:17:51;;;;;;;;;;;10.90;99.90;;;;;;5073044;28;19975;-66
2022/11/18 10:20:24;;;;;;;;;;;10.80;99.90;;;;;;5072258;28;19972;-66
2022/11/18 10:22:53;;;;;;;;;;;10.80;99.90;;;;;;5092177;28;20444;-67
2022/11/18 10:25:21;;;;;;;;;;;11.00;99.90;;;;;;5074576;28;19968;-66
2022/11/18 10:27:49;;;;;;;;;;;11.00;99.90;;;;;;5072317;28;19968;-66
2022/11/18 10:30:18;;;;;;;;;;;11.10;99.90;;;;;;5071756;28;20352;-67
2022/11/18 10:32:53;;;;;;;;;;;11.10;99.90;;;;;;5072327;28;19968;-66
2022/11/18 10:35:24;;;;;;;;;;;11.10;99.90;;;;;;5072187;28;20015;-66
2022/11/18 10:38:02;;;;;;;;;;;11.10;99.90;;;;;;5072034;28;19971;-67
2022/11/18 10:40:37;;;;;;;;;;;11.00;99.90;;;;;;5071389;28;20065;-67
2022/11/18 10:43:05;;;;;;;;;;;10.90;99.90;;;;;;5071729;28;19979;-66
2022/11/18 10:45:33;;;;;;;;;;;10.90;99.90;;;;;;5072069;28;19972;-66
2022/11/18 10:48:02;;;;;;;;;;;10.90;99.90;;;;;;5072461;28;19975;-66
2022/11/18 10:50:32;;;;;;;;;;;11.00;99.90;;;;;;5071146;28;20066;-67
2022/11/18 10:53:00;;;;;;;;;;;11.00;99.90;;;;;;5086830;28;19964;-67
2022/11/18 10:55:29;;;;;;;;;;;11.00;99.90;;;;;;5072969;28;19974;-66
2022/11/18 10:58:00;;;;;;;;;;;11.10;99.90;;;;;;5071903;28;19967;-66
2022/11/18 11:00:35;;;;;;;;;;;11.30;99.90;;;;;;5070930;28;20452;-67
2022/11/18 11:03:15;;;;;;;;;;;11.40;99.90;;;;;;5071801;28;20003;-67
2022/11/18 11:05:44;;;;;;;;;;;11.40;99.90;;;;;;5071747;28;20086;-66
2022/11/18 11:08:19;;;;;;;;;;;11.40;99.90;;;;;;5071699;28;19972;-67
2022/11/18 11:11:04;;;;;;;;;;;11.40;99.90;;;;;;5070808;28;20408;-66
2022/11/18 11:13:32;;;;;;;;;;;11.50;99.90;;;;;;5071692;28;20351;-66
2022/11/18 11:16:02;;;;;;;;;;;11.50;99.90;;;;;;5071788;28;19974;-66
2022/11/18 11:21:14;;;;;;;;;;;11.70;99.90;;;;;;5074709;28;20355;-67
2022/11/18 11:23:42;;;;;;;;;;;11.80;99.90;;;;;;5087696;28;19968;-67
2022/11/18 11:26:14;;;;;;;;;;;11.80;99.90;;;;;;5071605;28;20453;-67
2022/11/18 11:29:07;;;;;;;;;;;11.80;99.90;;;;;;5071415;28;19976;-67
2022/11/18 11:31:39;;;;;;;;;;;11.70;99.90;;;;;;5070360;28;19972;-67
2022/11/18 11:34:11;;;;;;;;;;;11.80;99.90;;;;;;5072011;28;19968;-67
2022/11/18 11:36:45;;;;;;;;;;;11.80;99.90;;;;;;5071470;28;19975;-66
2022/11/18 11:39:26;;;;;;;;;;;11.70;99.90;;;;;;5071547;28;20001;-67
2022/11/18 11:42:00;;;;;;;;;;;11.80;99.90;;;;;;5070797;28;19976;-66
2022/11/18 11:44:32;;;;;;;;;;;11.90;99.90;;;;;;5071419;28;19978;-67
2022/11/18 11:50:08;;;;;;;;;;;12.40;99.90;;;;;;5028363;28;20501;-67
2022/11/18 11:52:40;;;;;;;;;;;12.60;99.90;;;;;;5080098;28;20006;-66
2022/11/18 11:55:16;;;;;;;;;;;12.50;99.90;;;;;;5076974;28;19968;-67
2022/11/18 11:57:50;;;;;;;;;;;12.40;99.90;;;;;;5075111;28;19985;-66
2022/11/18 12:00:19;;;;;;;;;;;12.50;99.90;;;;;;5074487;28;20429;-65
2022/11/18 12:03:00;;;;;;;;;;;12.50;99.90;;;;;;5075094;28;19974;-66
2022/11/18 12:05:33;;;;;;;;;;;12.60;99.90;;;;;;5075019;28;20009;-65
2022/11/18 12:08:02;;;;;;;;;;;12.50;99.90;;;;;;5075155;28;19972;-66
2022/11/18 12:10:36;;;;;;;;;;;12.50;99.90;;;;;;5074113;28;19975;-66
2022/11/18 12:13:28;;;;;;;;;;;12.30;99.90;;;;;;5074934;28;20011;-66
2022/11/18 12:16:05;;;;;;;;;;;12.20;99.90;;;;;;5064562;28;20066;-65
2022/11/18 12:18:35;;;;;;;;;;;12.00;99.90;;;;;;5074878;28;20007;-65
2022/11/18 12:21:03;;;;;;;;;;;11.90;99.90;;;;;;5078745;28;20369;-66
2022/11/18 12:23:33;;;;;;;;;;;11.80;99.90;;;;;;5091850;28;20066;-65
2022/11/18 12:26:02;;;;;;;;;;;11.70;99.90;;;;;;5074511;28;19974;-66
2022/11/18 12:28:32;;;;;;;;;;;11.80;99.90;;;;;;5074442;28;20344;-65
2022/11/18 12:31:26;;;;;;;;;;;11.70;99.90;;;;;;5073928;28;19972;-65
2022/11/18 12:33:55;;;;;;;;;;;11.80;99.90;;;;;;5074665;28;19975;-66
2022/11/18 12:36:26;;;;;;;;;;;11.90;99.90;;;;;;5074402;28;20066;-65
2022/11/18 12:38:56;;;;;;;;;;;12.00;99.90;;;;;;5074551;28;19971;-65
2022/11/18 12:44:30;;;;;;;;;;;12.20;99.90;;;;;;5052589;28;20416;-66
2022/11/18 12:46:58;;;;;;;;;;;12.40;99.90;;;;;;5087750;28;19970;-65
2022/11/18 12:49:45;;;;;;;;;;;12.50;99.90;;;;;;5074355;28;20011;-65
2022/11/18 12:52:27;;;;;;;;;;;12.60;99.90;;;;;;5088139;28;20436;-65
2022/11/18 12:54:57;;;;;;;;;;;12.60;99.90;;;;;;5079842;28;20100;-65
2022/11/18 12:57:28;;;;;;;;;;;12.50;99.90;;;;;;5073876;28;19967;-66
2022/11/18 12:59:56;;;;;;;;;;;12.60;99.90;;;;;;5073579;28;19972;-65
2022/11/18 13:02:24;;;;;;;;;;;12.60;99.90;;;;;;5074201;28;20275;-65
2022/11/18 13:05:07;;;;;;;;;;;12.70;99.90;;;;;;5073749;28;19972;-66
2022/11/18 13:10:27;;;;;;;;;;;12.50;99.90;;;;;;5073784;28;20446;-66
2022/11/18 13:12:55;;;;;;;;;;;12.50;99.90;;;;;;5073948;28;19972;-66
2022/11/18 13:18:12;;;;;;;;;;;12.60;99.90;;;;;;5073673;28;19974;-65
2022/11/18 13:20:42;;;;;;;;;;;12.70;99.90;;;;;;5074607;28;20455;-66
2022/11/18 13:26:15;;;;;;;;;;;12.90;99.90;;;;;;5089901;28;20054;-66
2022/11/18 13:28:46;;;;;;;;;;;13.00;99.90;;;;;;5093514;28;19967;-65
2022/11/18 13:31:17;;;;;;;;;;;13.00;99.90;;;;;;5092905;28;19994;-66
2022/11/18 13:33:45;;;;;;;;;;;12.80;99.90;;;;;;5094128;28;20325;-65
2022/11/18 13:36:17;;;;;;;;;;;12.80;99.90;;;;;;5093306;28;19990;-65
2022/11/18 13:38:54;;;;;;;;;;;12.70;99.90;;;;;;5093663;28;20335;-66
2022/11/18 13:41:31;;;;;;;;;;;12.60;99.90;;;;;;5092835;28;20046;-65
2022/11/18 13:44:12;;;;;;;;;;;12.60;99.90;;;;;;5093472;28;19972;-65
2022/11/18 13:46:40;;;;;;;;;;;12.50;99.90;;;;;;5093147;28;19986;-65
2022/11/18 13:49:11;;;;;;;;;;;12.30;99.90;;;;;;5093280;28;19979;-66
2022/11/18 13:51:39;;;;;;;;;;;12.30;99.90;;;;;;5092533;28;19967;-65
2022/11/18 13:54:10;;;;;;;;;;;12.10;99.90;;;;;;5093028;28;19964;-65
2022/11/18 13:56:40;;;;;;;;;;;12.10;99.90;;;;;;5072671;28;19972;-65
2022/11/18 13:59:14;;;;;;;;;;;11.90;99.90;;;;;;5072802;28;19978;-66
2022/11/18 14:01:45;;;;;;;;;;;11.80;99.90;;;;;;5072247;28;19971;-65
2022/11/18 14:04:19;;;;;;;;;;;11.80;99.90;;;;;;5072948;28;20475;-65
2022/11/18 14:06:47;;;;;;;;;;;11.80;99.90;;;;;;5072457;28;19974;-66
2022/11/18 14:09:18;;;;;;;;;;;11.70;99.90;;;;;;5072556;28;19975;-65
2022/11/18 14:11:57;;;;;;;;;;;11.70;99.90;;;;;;5071673;28;19968;-65
2022/11/18 14:14:29;;;;;;;;;;;11.70;99.90;;;;;;5072752;28;19968;-65
2022/11/18 14:17:15;;;;;;;;;;;11.70;99.90;;;;;;5071158;28;20312;-66
2022/11/18 14:19:42;;;;;;;;;;;11.60;99.90;;;;;;5071820;28;19968;-65
2022/11/18 14:22:13;;;;;;;;;;;11.60;99.90;;;;;;5077825;28;20325;-65
2022/11/18 14:24:41;;;;;;;;;;;11.60;99.90;;;;;;5084907;28;20018;-65
2022/11/18 14:27:27;;;;;;;;;;;11.50;99.90;;;;;;5092377;28;19973;-65
2022/11/18 14:29:56;;;;;;;;;;;11.40;99.90;;;;;;5091783;28;19971;-65
2022/11/18 14:32:24;;;;;;;;;;;11.40;99.90;;;;;;5092295;28;20435;-66
2022/11/18 14:34:57;;;;;;;;;;;11.40;99.90;;;;;;5092521;28;20054;-65
2022/11/18 14:37:25;;;;;;;;;;;11.30;99.90;;;;;;5092014;28;19971;-65
2022/11/18 14:39:56;;;;;;;;;;;11.30;99.90;;;;;;5091653;28;20432;-65
2022/11/18 14:42:23;;;;;;;;;;;11.30;99.90;;;;;;5092308;28;19972;-65
2022/11/18 14:44:51;;;;;;;;;;;11.20;99.90;;;;;;5092402;28;20400;-65
2022/11/18 14:47:24;;;;;;;;;;;11.20;99.90;;;;;;5092234;28;19967;-65
2022/11/18 14:49:52;;;;;;;;;;;11.10;99.90;;;;;;5091670;28;19968;-65
2022/11/18 14:52:19;;;;;;;;;;;11.10;99.90;;;;;;5092062;28;19968;-65
2022/11/18 14:54:47;;;;;;;;;;;11.00;99.90;;;;;;5087520;28;19964;-65
2022/11/18 14:57:16;;;;;;;;;;;10.90;99.90;;;;;;5072069;28;20440;-65
2022/11/18 14:59:44;;;;;;;;;;;10.90;99.90;;;;;;5071572;28;20071;-65
2022/11/18 15:02:13;;;;;;;;;;;10.80;99.90;;;;;;5071910;28;20444;-66
2022/11/18 15:04:42;;;;;;;;;;;10.70;99.90;;;;;;5072042;28;20417;-65
2022/11/18 15:07:12;;;;;;;;;;;10.70;99.90;;;;;;5071585;28;20357;-65
2022/11/18 15:09:45;;;;;;;;;;;10.60;99.90;;;;;;5071189;28;19972;-65
2022/11/18 15:12:13;;;;;;;;;;;10.60;99.90;;;;;;5071789;28;19968;-65
2022/11/18 15:14:40;;;;;;;;;;;10.50;99.90;;;;;;5071879;28;19990;-66
2022/11/18 15:17:11;;;;;;;;;;;10.60;99.90;;;;;;5071923;28;19972;-65